sensor_id;sensor_type;location;lat;lon;timestamp;temperature;humidity
39957;DHT22;48483;44.640;7.494;2022-11-20T00:00:38;6.70;99.90
39957;DHT22;48483;44.640;7.494;2022-11-20T00:03:05;6.70;99.90
39957;DHT22;48483;44.640;7.494;2022-11-20T00:05:32;6.70;99.90
39957;DHT22;48483;44.640;7.494;2022-11-20T00:08:00;6.70;99.90
39957;DHT22;48483;44.640;7.494;2022-11-20T00:10:27;6.80;99.90
39957;DHT22;48483;44.640;7.494;2022-11-20T00:12:53;6.70;99.90
39957;DHT22;48483;44.640;7.494;2022-11-20T00:15:20;6.70;99.90
39957;DHT22;48483;44.640;7.494;2022-11-20T00:17:47;6.80;99.90
39957;DHT22;48483;44.640;7.494;2022-11-20T00:20:14;6.70;99.90
39957;DHT22;48483;44.640;7.494;2022-11-20T00:22:41;6.70;99.90
39957;DHT22;48483;44.640;7.494;2022-11-20T00:25:09;6.70;99.90
39957;DHT22;48483;44.640;7.494;2022-11-20T00:27:36;6.60;99.90
39957;DHT22;48483;44.640;7.494;2022-11-20T00:30:03;6.60;99.90
39957;DHT22;48483;44.640;7.494;2022-11-20T00:32:30;6.50;99.90
39957;DHT22;48483;44.640;7.494;2022-11-20T00:34:57;6.40;99.90
39957;DHT22;48483;44.640;7.494;2022-11-20T00:37:23;6.50;99.90
39957;DHT22;48483;44.640;7.494;2022-11-20T00:39:50;6.50;99.90
39957;DHT22;48483;44.640;7.494;2022-11-20T00:42:18;6.50;99.90
39957;DHT22;48483;44.640;7.494;2022-11-20T00:44:45;6.50;99.90
39957;DHT22;48483;44.640;7.494;2022-11-20T00:47:11;6.40;99.90
39957;DHT22;48483;44.640;7.494;2022-11-20T00:49:38;6.30;99.90
39957;DHT22;48483;44.640;7.494;2022-11-20T00:52:05;6.30;99.90
39957;DHT22;48483;44.640;7.494;2022-11-20T00:54:31;6.30;99.90
39957;DHT22;48483;44.640;7.494;2022-11-20T00:56:58;6.30;99.90
39957;DHT22;48483;44.640;7.494;2022-11-20T00:59:26;6.30;99.90
39957;DHT22;48483;44.640;7.494;2022-11-20T01:01:53;6.30;99.90
39957;DHT22;48483;44.640;7.494;2022-11-20T01:04:19;6.30;99.90
39957;DHT22;48483;44.640;7.494;2022-11-20T01:06:46;6.30;99.90
39957;DHT22;48483;44.640;7.494;2022-11-20T01:09:14;6.30;99.90
39957;DHT22;48483;44.640;7.494;2022-11-20T01:11:42;6.30;99.90
39957;DHT22;48483;44.640;7.494;2022-11-20T01:14:10;6.30;99.90
39957;DHT22;48483;44.640;7.494;2022-11-20T01:16:40;6.30;99.90
39957;DHT22;48483;44.640;7.494;2022-11-20T01:19:10;6.20;99.90
39957;DHT22;48483;44.640;7.494;2022-11-20T01:21:39;6.20;99.90
39957;DHT22;48483;44.640;7.494;2022-11-20T01:24:07;6.20;99.90
39957;DHT22;48483;44.640;7.494;2022-11-20T01:26:36;6.20;99.90
39957;DHT22;48483;44.640;7.494;2022-11-20T01:29:03;6.20;99.90
39957;DHT22;48483;44.640;7.494;2022-11-20T01:31:32;6.20;99.90
39957;DHT22;48483;44.640;7.494;2022-11-20T01:34:02;6.20;99.90
39957;DHT22;48483;44.640;7.494;2022-11-20T01:36:30;6.20;99.90
39957;DHT22;48483;44.640;7.494;2022-11-20T01:38:58;6.30;99.90
39957;DHT22;48483;44.640;7.494;2022-11-20T01:41:27;6.20;99.90
39957;DHT22;48483;44.640;7.494;2022-11-20T01:44:15;6.30;99.90
39957;DHT22;48483;44.640;7.494;2022-11-20T01:46:56;6.30;99.90
39957;DHT22;48483;44.640;7.494;2022-11-20T01:49:30;6.30;99.90
39957;DHT22;48483;44.640;7.494;2022-11-20T01:52:02;6.40;99.90
39957;DHT22;48483;44.640;7.494;2022-11-20T01:54:35;6.40;99.90
39957;DHT22;48483;44.640;7.494;2022-11-20T01:57:04;6.40;99.90
39957;DHT22;48483;44.640;7.494;2022-11-20T01:59:31;6.40;99.90
39957;DHT22;48483;44.640;7.494;2022-11-20T02:01:58;6.30;99.90
39957;DHT22;48483;44.640;7.494;2022-11-20T02:04:26;6.20;99.90
39957;DHT22;48483;44.640;7.494;2022-11-20T02:06:57;6.20;99.90
39957;DHT22;48483;44.640;7.494;2022-11-20T02:09:25;6.10;99.90
39957;DHT22;48483;44.640;7.494;2022-11-20T02:11:53;6.10;99.90
39957;DHT22;48483;44.640;7.494;2022-11-20T02:14:20;6.00;99.90
39957;DHT22;48483;44.640;7.494;2022-11-20T02:16:48;6.00;99.90
39957;DHT22;48483;44.640;7.494;2022-11-20T02:19:21;6.00;99.90
39957;DHT22;48483;44.640;7.494;2022-11-20T02:21:56;6.00;99.90
39957;DHT22;48483;44.640;7.494;2022-11-20T02:24:26;6.10;99.90
39957;DHT22;48483;44.640;7.494;2022-11-20T02:26:55;6.10;99.90
39957;DHT22;48483;44.640;7.494;2022-11-20T02:29:25;6.20;99.90
39957;DHT22;48483;44.640;7.494;2022-11-20T02:31:55;6.10;99.90
39957;DHT22;48483;44.640;7.494;2022-11-20T02:34:22;6.10;99.90
39957;DHT22;48483;44.640;7.494;2022-11-20T02:36:49;6.10;99.90
39957;DHT22;48483;44.640;7.494;2022-11-20T02:39:17;6.10;99.90
39957;DHT22;48483;44.640;7.494;2022-11-20T02:41:46;6.00;99.90
39957;DHT22;48483;44.640;7.494;2022-11-20T02:44:13;6.00;99.90
39957;DHT22;48483;44.640;7.494;2022-11-20T02:46:40;6.00;99.90
39957;DHT22;48483;44.640;7.494;2022-11-20T02:49:06;6.00;99.90
39957;DHT22;48483;44.640;7.494;2022-11-20T02:51:33;5.90;99.90
39957;DHT22;48483;44.640;7.494;2022-11-20T02:54:00;5.90;99.90
39957;DHT22;48483;44.640;7.494;2022-11-20T02:56:27;6.00;99.90
39957;DHT22;48483;44.640;7.494;2022-11-20T02:58:55;6.00;99.90
39957;DHT22;48483;44.640;7.494;2022-11-20T03:01:22;6.00;99.90
39957;DHT22;48483;44.640;7.494;2022-11-20T03:03:49;6.00;99.90
39957;DHT22;48483;44.640;7.494;2022-11-20T03:06:16;5.90;99.90
39957;DHT22;48483;44.640;7.494;2022-11-20T03:08:43;5.80;99.90
39957;DHT22;48483;44.640;7.494;2022-11-20T03:11:10;5.80;99.90
39957;DHT22;48483;44.640;7.494;2022-11-20T03:13:36;5.80;99.90
39957;DHT22;48483;44.640;7.494;2022-11-20T03:16:10;5.80;99.90
39957;DHT22;48483;44.640;7.494;2022-11-20T03:18:37;5.80;99.90
39957;DHT22;48483;44.640;7.494;2022-11-20T03:21:05;5.80;99.90
39957;DHT22;48483;44.640;7.494;2022-11-20T03:23:32;5.80;99.90
39957;DHT22;48483;44.640;7.494;2022-11-20T03:26:10;5.80;99.90
39957;DHT22;48483;44.640;7.494;2022-11-20T03:28:37;5.80;99.90
39957;DHT22;48483;44.640;7.494;2022-11-20T03:31:08;5.80;99.90
39957;DHT22;48483;44.640;7.494;2022-11-20T03:33:35;5.80;99.90
39957;DHT22;48483;44.640;7.494;2022-11-20T03:36:03;5.80;99.90
39957;DHT22;48483;44.640;7.494;2022-11-20T03:38:29;5.90;99.90
39957;DHT22;48483;44.640;7.494;2022-11-20T03:40:59;5.80;99.90
39957;DHT22;48483;44.640;7.494;2022-11-20T03:43:26;5.80;99.90
39957;DHT22;48483;44.640;7.494;2022-11-20T03:45:53;5.70;99.90
39957;DHT22;48483;44.640;7.494;2022-11-20T03:48:21;5.70;99.90
39957;DHT22;48483;44.640;7.494;2022-11-20T03:50:48;5.70;99.90
39957;DHT22;48483;44.640;7.494;2022-11-20T03:53:15;5.70;99.90
39957;DHT22;48483;44.640;7.494;2022-11-20T03:55:42;5.80;99.90
39957;DHT22;48483;44.640;7.494;2022-11-20T03:58:09;5.80;99.90
39957;DHT22;48483;44.640;7.494;2022-11-20T04:00:36;5.80;99.90
39957;DHT22;48483;44.640;7.494;2022-11-20T04:03:02;5.80;99.90
39957;DHT22;48483;44.640;7.494;2022-11-20T04:05:32;5.70;99.90
39957;DHT22;48483;44.640;7.494;2022-11-20T04:07:59;5.70;99.90
39957;DHT22;48483;44.640;7.494;2022-11-20T04:10:26;5.80;99.90
39957;DHT22;48483;44.640;7.494;2022-11-20T04:12:53;5.70;99.90
39957;DHT22;48483;44.640;7.494;2022-11-20T04:15:19;5.70;99.90
39957;DHT22;48483;44.640;7.494;2022-11-20T04:17:46;5.70;99.90
39957;DHT22;48483;44.640;7.494;2022-11-20T04:20:12;5.70;99.90
39957;DHT22;48483;44.640;7.494;2022-11-20T04:22:40;5.60;99.90
39957;DHT22;48483;44.640;7.494;2022-11-20T04:25:08;5.60;99.90
39957;DHT22;48483;44.640;7.494;2022-11-20T04:27:35;5.60;99.90
39957;DHT22;48483;44.640;7.494;2022-11-20T04:30:01;5.50;99.90
39957;DHT22;48483;44.640;7.494;2022-11-20T04:32:28;5.50;99.90
39957;DHT22;48483;44.640;7.494;2022-11-20T04:34:55;5.40;99.90
39957;DHT22;48483;44.640;7.494;2022-11-20T04:37:21;5.40;99.90
39957;DHT22;48483;44.640;7.494;2022-11-20T04:39:49;5.40;99.90
39957;DHT22;48483;44.640;7.494;2022-11-20T04:42:16;5.30;99.90
39957;DHT22;48483;44.640;7.494;2022-11-20T04:44:55;5.30;99.90
39957;DHT22;48483;44.640;7.494;2022-11-20T04:47:22;5.30;99.90
39957;DHT22;48483;44.640;7.494;2022-11-20T04:49:49;5.30;99.90
39957;DHT22;48483;44.640;7.494;2022-11-20T04:52:15;5.30;99.90
39957;DHT22;48483;44.640;7.494;2022-11-20T04:54:42;5.30;99.90
39957;DHT22;48483;44.640;7.494;2022-11-20T04:57:10;5.30;99.90
39957;DHT22;48483;44.640;7.494;2022-11-20T04:59:38;5.30;99.90
39957;DHT22;48483;44.640;7.494;2022-11-20T05:02:05;5.30;99.90
39957;DHT22;48483;44.640;7.494;2022-11-20T05:04:32;5.30;99.90
39957;DHT22;48483;44.640;7.494;2022-11-20T05:06:58;5.40;99.90
39957;DHT22;48483;44.640;7.494;2022-11-20T05:09:25;5.40;99.90
39957;DHT22;48483;44.640;7.494;2022-11-20T05:11:51;5.40;99.90
39957;DHT22;48483;44.640;7.494;2022-11-20T05:14:20;5.30;99.90
39957;DHT22;48483;44.640;7.494;2022-11-20T05:16:46;5.30;99.90
39957;DHT22;48483;44.640;7.494;2022-11-20T05:19:13;5.30;99.90
39957;DHT22;48483;44.640;7.494;2022-11-20T05:21:39;5.30;99.90
39957;DHT22;48483;44.640;7.494;2022-11-20T05:24:06;5.30;99.90
39957;DHT22;48483;44.640;7.494;2022-11-20T05:26:33;5.20;99.90
39957;DHT22;48483;44.640;7.494;2022-11-20T05:28:59;5.20;99.90
39957;DHT22;48483;44.640;7.494;2022-11-20T05:31:27;5.20;99.90
39957;DHT22;48483;44.640;7.494;2022-11-20T05:33:55;5.10;99.90
39957;DHT22;48483;44.640;7.494;2022-11-20T05:36:22;5.10;99.90
39957;DHT22;48483;44.640;7.494;2022-11-20T05:38:49;5.20;99.90
39957;DHT22;48483;44.640;7.494;2022-11-20T05:41:17;5.20;99.90
39957;DHT22;48483;44.640;7.494;2022-11-20T05:43:45;5.20;99.90
39957;DHT22;48483;44.640;7.494;2022-11-20T05:46:14;5.20;99.90
39957;DHT22;48483;44.640;7.494;2022-11-20T05:48:43;5.20;99.90
39957;DHT22;48483;44.640;7.494;2022-11-20T05:51:12;5.20;99.90
39957;DHT22;48483;44.640;7.494;2022-11-20T05:53:39;5.20;99.90
39957;DHT22;48483;44.640;7.494;2022-11-20T05:56:08;5.20;99.90
39957;DHT22;48483;44.640;7.494;2022-11-20T05:58:36;5.20;99.90
39957;DHT22;48483;44.640;7.494;2022-11-20T06:01:05;5.10;99.90
39957;DHT22;48483;44.640;7.494;2022-11-20T06:03:32;5.10;99.90
39957;DHT22;48483;44.640;7.494;2022-11-20T06:06:00;5.10;99.90
39957;DHT22;48483;44.640;7.494;2022-11-20T06:08:27;5.10;99.90
39957;DHT22;48483;44.640;7.494;2022-11-20T06:10:54;5.10;99.90
39957;DHT22;48483;44.640;7.494;2022-11-20T06:13:21;5.10;99.90
39957;DHT22;48483;44.640;7.494;2022-11-20T06:15:49;5.10;99.90
39957;DHT22;48483;44.640;7.494;2022-11-20T06:18:16;5.10;99.90
39957;DHT22;48483;44.640;7.494;2022-11-20T06:20:43;5.10;99.90
39957;DHT22;48483;44.640;7.494;2022-11-20T06:23:11;5.10;99.90
39957;DHT22;48483;44.640;7.494;2022-11-20T06:25:38;5.10;99.90
39957;DHT22;48483;44.640;7.494;2022-11-20T06:28:05;5.10;99.90
39957;DHT22;48483;44.640;7.494;2022-11-20T06:30:31;5.20;99.90
39957;DHT22;48483;44.640;7.494;2022-11-20T06:32:58;5.20;99.90
39957;DHT22;48483;44.640;7.494;2022-11-20T06:35:25;5.20;99.90
39957;DHT22;48483;44.640;7.494;2022-11-20T06:37:51;5.20;99.90
39957;DHT22;48483;44.640;7.494;2022-11-20T06:40:20;5.30;99.90
39957;DHT22;48483;44.640;7.494;2022-11-20T06:42:46;5.30;99.90
39957;DHT22;48483;44.640;7.494;2022-11-20T06:45:13;5.30;99.90
39957;DHT22;48483;44.640;7.494;2022-11-20T06:47:40;5.20;99.90
39957;DHT22;48483;44.640;7.494;2022-11-20T06:50:07;5.10;99.90
39957;DHT22;48483;44.640;7.494;2022-11-20T06:52:33;5.10;99.90
39957;DHT22;48483;44.640;7.494;2022-11-20T06:55:00;5.10;99.90
39957;DHT22;48483;44.640;7.494;2022-11-20T06:57:28;5.20;99.90
39957;DHT22;48483;44.640;7.494;2022-11-20T06:59:55;5.30;99.90
39957;DHT22;48483;44.640;7.494;2022-11-20T07:02:21;5.40;99.90
39957;DHT22;48483;44.640;7.494;2022-11-20T07:04:48;5.40;99.90
39957;DHT22;48483;44.640;7.494;2022-11-20T07:07:15;5.40;99.90
39957;DHT22;48483;44.640;7.494;2022-11-20T07:09:41;5.50;99.90
39957;DHT22;48483;44.640;7.494;2022-11-20T07:12:08;5.50;99.90
39957;DHT22;48483;44.640;7.494;2022-11-20T07:14:36;5.50;99.90
39957;DHT22;48483;44.640;7.494;2022-11-20T07:17:03;5.50;99.90
39957;DHT22;48483;44.640;7.494;2022-11-20T07:19:29;5.50;99.90
39957;DHT22;48483;44.640;7.494;2022-11-20T07:21:56;5.60;99.90
39957;DHT22;48483;44.640;7.494;2022-11-20T07:24:23;5.70;99.90
39957;DHT22;48483;44.640;7.494;2022-11-20T07:26:49;5.70;99.90
39957;DHT22;48483;44.640;7.494;2022-11-20T07:29:16;5.70;99.90
39957;DHT22;48483;44.640;7.494;2022-11-20T07:31:44;5.80;99.90
39957;DHT22;48483;44.640;7.494;2022-11-20T07:34:11;5.80;99.90
39957;DHT22;48483;44.640;7.494;2022-11-20T07:36:38;5.80;99.90
39957;DHT22;48483;44.640;7.494;2022-11-20T07:39:05;5.90;99.90
39957;DHT22;48483;44.640;7.494;2022-11-20T07:41:32;5.90;99.90
39957;DHT22;48483;44.640;7.494;2022-11-20T07:43:58;6.00;99.90
39957;DHT22;48483;44.640;7.494;2022-11-20T07:46:25;6.10;99.90
39957;DHT22;48483;44.640;7.494;2022-11-20T07:48:53;6.20;99.90
39957;DHT22;48483;44.640;7.494;2022-11-20T07:51:20;6.20;99.90
39957;DHT22;48483;44.640;7.494;2022-11-20T07:53:46;6.30;99.90
39957;DHT22;48483;44.640;7.494;2022-11-20T07:56:13;6.40;99.90
39957;DHT22;48483;44.640;7.494;2022-11-20T07:58:40;6.40;99.90
39957;DHT22;48483;44.640;7.494;2022-11-20T08:01:07;6.50;99.90
39957;DHT22;48483;44.640;7.494;2022-11-20T08:03:34;6.60;99.90
39957;DHT22;48483;44.640;7.494;2022-11-20T08:06:02;6.60;99.90
39957;DHT22;48483;44.640;7.494;2022-11-20T08:08:29;6.70;99.90
39957;DHT22;48483;44.640;7.494;2022-11-20T08:10:56;6.80;99.90
39957;DHT22;48483;44.640;7.494;2022-11-20T08:13:43;6.90;99.90
39957;DHT22;48483;44.640;7.494;2022-11-20T08:16:28;6.90;99.90
39957;DHT22;48483;44.640;7.494;2022-11-20T08:18:55;7.00;99.90
39957;DHT22;48483;44.640;7.494;2022-11-20T08:21:24;7.10;99.90
39957;DHT22;48483;44.640;7.494;2022-11-20T08:23:50;7.10;99.90
39957;DHT22;48483;44.640;7.494;2022-11-20T08:26:17;7.20;99.90
39957;DHT22;48483;44.640;7.494;2022-11-20T08:28:44;7.30;99.90
39957;DHT22;48483;44.640;7.494;2022-11-20T08:31:11;7.30;99.90
39957;DHT22;48483;44.640;7.494;2022-11-20T08:33:38;7.40;99.90
39957;DHT22;48483;44.640;7.494;2022-11-20T08:36:06;7.50;99.90
39957;DHT22;48483;44.640;7.494;2022-11-20T08:38:34;7.50;99.90
39957;DHT22;48483;44.640;7.494;2022-11-20T08:41:02;7.50;99.90
39957;DHT22;48483;44.640;7.494;2022-11-20T08:44:06;7.50;99.90
39957;DHT22;48483;44.640;7.494;2022-11-20T08:46:34;7.60;99.90
39957;DHT22;48483;44.640;7.494;2022-11-20T08:49:02;7.60;99.90
39957;DHT22;48483;44.640;7.494;2022-11-20T08:51:29;7.70;99.90
39957;DHT22;48483;44.640;7.494;2022-11-20T08:53:57;7.80;99.90
39957;DHT22;48483;44.640;7.494;2022-11-20T08:56:24;7.80;99.90
39957;DHT22;48483;44.640;7.494;2022-11-20T08:58:51;7.90;99.90
39957;DHT22;48483;44.640;7.494;2022-11-20T09:01:19;8.00;99.90
39957;DHT22;48483;44.640;7.494;2022-11-20T09:03:47;8.00;99.90
39957;DHT22;48483;44.640;7.494;2022-11-20T09:06:14;8.10;99.90
39957;DHT22;48483;44.640;7.494;2022-11-20T09:08:41;8.10;99.90
39957;DHT22;48483;44.640;7.494;2022-11-20T09:11:10;8.10;99.90
39957;DHT22;48483;44.640;7.494;2022-11-20T09:13:37;8.20;99.90
39957;DHT22;48483;44.640;7.494;2022-11-20T09:16:06;8.20;99.90
39957;DHT22;48483;44.640;7.494;2022-11-20T09:18:34;8.20;99.90
39957;DHT22;48483;44.640;7.494;2022-11-20T09:21:04;8.30;99.90
39957;DHT22;48483;44.640;7.494;2022-11-20T09:23:33;8.30;99.90
39957;DHT22;48483;44.640;7.494;2022-11-20T09:26:02;8.30;99.90
39957;DHT22;48483;44.640;7.494;2022-11-20T09:28:30;8.30;99.90
39957;DHT22;48483;44.640;7.494;2022-11-20T09:30:57;8.40;99.90
39957;DHT22;48483;44.640;7.494;2022-11-20T09:33:23;8.40;99.90
39957;DHT22;48483;44.640;7.494;2022-11-20T09:35:50;8.40;99.90
39957;DHT22;48483;44.640;7.494;2022-11-20T09:38:17;8.50;99.90
39957;DHT22;48483;44.640;7.494;2022-11-20T09:40:47;8.60;99.90
39957;DHT22;48483;44.640;7.494;2022-11-20T09:43:19;8.60;99.90
39957;DHT22;48483;44.640;7.494;2022-11-20T09:45:57;8.70;99.90
39957;DHT22;48483;44.640;7.494;2022-11-20T09:48:36;8.70;99.90
39957;DHT22;48483;44.640;7.494;2022-11-20T09:51:13;8.80;99.90
39957;DHT22;48483;44.640;7.494;2022-11-20T09:53:50;8.80;99.90
39957;DHT22;48483;44.640;7.494;2022-11-20T09:56:19;8.90;99.90
39957;DHT22;48483;44.640;7.494;2022-11-20T09:58:50;8.90;99.90
39957;DHT22;48483;44.640;7.494;2022-11-20T10:01:18;9.00;99.90
39957;DHT22;48483;44.640;7.494;2022-11-20T10:03:51;9.00;99.90
39957;DHT22;48483;44.640;7.494;2022-11-20T10:06:24;9.00;99.90
39957;DHT22;48483;44.640;7.494;2022-11-20T10:09:02;9.10;99.90
39957;DHT22;48483;44.640;7.494;2022-11-20T10:11:36;9.20;99.90
39957;DHT22;48483;44.640;7.494;2022-11-20T10:14:13;9.20;99.90
39957;DHT22;48483;44.640;7.494;2022-11-20T10:16:48;9.20;99.90
39957;DHT22;48483;44.640;7.494;2022-11-20T10:19:34;9.30;99.90
39957;DHT22;48483;44.640;7.494;2022-11-20T10:22:19;9.30;99.90
39957;DHT22;48483;44.640;7.494;2022-11-20T10:24:55;9.40;99.90
39957;DHT22;48483;44.640;7.494;2022-11-20T10:30:21;9.50;99.90
39957;DHT22;48483;44.640;7.494;2022-11-20T10:32:56;9.50;99.90
39957;DHT22;48483;44.640;7.494;2022-11-20T10:35:33;9.60;99.90
39957;DHT22;48483;44.640;7.494;2022-11-20T10:38:03;9.60;99.90
39957;DHT22;48483;44.640;7.494;2022-11-20T10:40:37;9.70;99.90
39957;DHT22;48483;44.640;7.494;2022-11-20T10:43:10;9.70;99.90
39957;DHT22;48483;44.640;7.494;2022-11-20T10:45:45;9.80;99.90
39957;DHT22;48483;44.640;7.494;2022-11-20T10:48:21;9.80;99.90
39957;DHT22;48483;44.640;7.494;2022-11-20T10:51:02;9.80;99.90
39957;DHT22;48483;44.640;7.494;2022-11-20T10:53:53;9.90;99.90
39957;DHT22;48483;44.640;7.494;2022-11-20T10:56:27;10.00;99.90
39957;DHT22;48483;44.640;7.494;2022-11-20T11:02:15;10.10;99.90
39957;DHT22;48483;44.640;7.494;2022-11-20T11:04:46;10.20;99.90
39957;DHT22;48483;44.640;7.494;2022-11-20T11:07:17;10.20;99.90
39957;DHT22;48483;44.640;7.494;2022-11-20T11:09:47;10.30;99.90
39957;DHT22;48483;44.640;7.494;2022-11-20T11:12:14;10.40;99.90
39957;DHT22;48483;44.640;7.494;2022-11-20T11:14:49;10.40;99.90
39957;DHT22;48483;44.640;7.494;2022-11-20T11:17:25;10.40;99.90
39957;DHT22;48483;44.640;7.494;2022-11-20T11:20:03;10.40;99.90
39957;DHT22;48483;44.640;7.494;2022-11-20T11:22:32;10.60;99.90
39957;DHT22;48483;44.640;7.494;2022-11-20T11:24:59;10.50;99.90
39957;DHT22;48483;44.640;7.494;2022-11-20T11:27:26;10.60;99.90
39957;DHT22;48483;44.640;7.494;2022-11-20T11:30:10;10.60;99.90
39957;DHT22;48483;44.640;7.494;2022-11-20T11:32:38;10.70;99.90
39957;DHT22;48483;44.640;7.494;2022-11-20T11:35:19;10.70;99.90
39957;DHT22;48483;44.640;7.494;2022-11-20T11:37:46;10.80;99.90
39957;DHT22;48483;44.640;7.494;2022-11-20T11:40:15;10.80;99.90
39957;DHT22;48483;44.640;7.494;2022-11-20T11:42:43;10.80;99.90
39957;DHT22;48483;44.640;7.494;2022-11-20T11:45:14;10.90;99.90
39957;DHT22;48483;44.640;7.494;2022-11-20T11:47:46;10.90;99.90
39957;DHT22;48483;44.640;7.494;2022-11-20T11:50:18;11.00;99.90
39957;DHT22;48483;44.640;7.494;2022-11-20T11:52:46;11.00;99.90
39957;DHT22;48483;44.640;7.494;2022-11-20T11:55:17;11.10;99.90
39957;DHT22;48483;44.640;7.494;2022-11-20T11:57:51;11.20;99.90
39957;DHT22;48483;44.640;7.494;2022-11-20T12:00:22;11.20;99.90
39957;DHT22;48483;44.640;7.494;2022-11-20T12:02:57;11.20;99.90
39957;DHT22;48483;44.640;7.494;2022-11-20T12:05:34;11.20;99.90
39957;DHT22;48483;44.640;7.494;2022-11-20T12:08:09;11.20;99.90
39957;DHT22;48483;44.640;7.494;2022-11-20T12:10:44;11.30;99.90
39957;DHT22;48483;44.640;7.494;2022-11-20T12:13:25;11.40;99.90
39957;DHT22;48483;44.640;7.494;2022-11-20T12:15:53;11.40;99.90
39957;DHT22;48483;44.640;7.494;2022-11-20T12:18:22;11.40;99.90
39957;DHT22;48483;44.640;7.494;2022-11-20T12:21:01;11.50;99.90
39957;DHT22;48483;44.640;7.494;2022-11-20T12:23:38;11.50;99.90
39957;DHT22;48483;44.640;7.494;2022-11-20T12:26:17;11.50;98.00
39957;DHT22;48483;44.640;7.494;2022-11-20T12:28:55;11.60;99.40
39957;DHT22;48483;44.640;7.494;2022-11-20T12:31:37;11.70;97.00
39957;DHT22;48483;44.640;7.494;2022-11-20T12:34:17;11.70;96.50
39957;DHT22;48483;44.640;7.494;2022-11-20T12:36:52;11.70;95.50
39957;DHT22;48483;44.640;7.494;2022-11-20T12:39:34;11.70;95.50
39957;DHT22;48483;44.640;7.494;2022-11-20T12:45:46;11.80;93.20
39957;DHT22;48483;44.640;7.494;2022-11-20T12:48:28;11.80;92.30
39957;DHT22;48483;44.640;7.494;2022-11-20T12:51:11;11.80;90.30
39957;DHT22;48483;44.640;7.494;2022-11-20T12:53:49;11.80;88.80
39957;DHT22;48483;44.640;7.494;2022-11-20T12:56:26;11.80;87.60
39957;DHT22;48483;44.640;7.494;2022-11-20T12:59:04;11.90;85.40
39957;DHT22;48483;44.640;7.494;2022-11-20T13:01:40;11.90;84.00
39957;DHT22;48483;44.640;7.494;2022-11-20T13:04:22;11.90;79.70
39957;DHT22;48483;44.640;7.494;2022-11-20T13:06:56;11.90;77.90
39957;DHT22;48483;44.640;7.494;2022-11-20T13:09:25;11.90;74.60
39957;DHT22;48483;44.640;7.494;2022-11-20T13:12:01;11.90;75.50
39957;DHT22;48483;44.640;7.494;2022-11-20T13:14:34;11.90;74.50
39957;DHT22;48483;44.640;7.494;2022-11-20T13:17:07;12.00;75.30
39957;DHT22;48483;44.640;7.494;2022-11-20T13:19:36;12.00;76.10
39957;DHT22;48483;44.640;7.494;2022-11-20T13:22:03;12.00;75.90
39957;DHT22;48483;44.640;7.494;2022-11-20T13:24:32;12.00;71.20
39957;DHT22;48483;44.640;7.494;2022-11-20T13:27:04;12.00;71.60
39957;DHT22;48483;44.640;7.494;2022-11-20T13:29:31;12.00;70.50
39957;DHT22;48483;44.640;7.494;2022-11-20T13:32:07;12.00;70.90
39957;DHT22;48483;44.640;7.494;2022-11-20T13:34:39;12.00;72.00
39957;DHT22;48483;44.640;7.494;2022-11-20T13:37:25;12.00;71.00
39957;DHT22;48483;44.640;7.494;2022-11-20T13:40:05;12.10;71.40
39957;DHT22;48483;44.640;7.494;2022-11-20T13:42:39;12.10;70.80
39957;DHT22;48483;44.640;7.494;2022-11-20T13:45:11;12.10;70.80
39957;DHT22;48483;44.640;7.494;2022-11-20T13:47:48;12.00;71.40
39957;DHT22;48483;44.640;7.494;2022-11-20T13:50:15;12.00;72.20
39957;DHT22;48483;44.640;7.494;2022-11-20T13:52:49;12.00;72.10
39957;DHT22;48483;44.640;7.494;2022-11-20T13:55:23;12.00;76.20
39957;DHT22;48483;44.640;7.494;2022-11-20T13:58:12;12.20;97.40
39957;DHT22;48483;44.640;7.494;2022-11-20T14:00:48;12.20;87.90
39957;DHT22;48483;44.640;7.494;2022-11-20T14:03:18;12.20;92.30
39957;DHT22;48483;44.640;7.494;2022-11-20T14:05:51;12.30;96.20
39957;DHT22;48483;44.640;7.494;2022-11-20T14:08:27;12.30;94.00
39957;DHT22;48483;44.640;7.494;2022-11-20T14:11:14;12.40;96.30
39957;DHT22;48483;44.640;7.494;2022-11-20T14:13:58;12.40;91.90
39957;DHT22;48483;44.640;7.494;2022-11-20T14:16:27;12.40;95.00
39957;DHT22;48483;44.640;7.494;2022-11-20T14:18:55;12.40;90.20
39957;DHT22;48483;44.640;7.494;2022-11-20T14:21:23;12.40;91.00
39957;DHT22;48483;44.640;7.494;2022-11-20T14:23:53;12.40;90.20
39957;DHT22;48483;44.640;7.494;2022-11-20T14:26:21;12.40;90.40
39957;DHT22;48483;44.640;7.494;2022-11-20T14:28:49;12.40;92.30
39957;DHT22;48483;44.640;7.494;2022-11-20T14:31:22;12.30;92.80
39957;DHT22;48483;44.640;7.494;2022-11-20T14:33:50;12.40;92.50
39957;DHT22;48483;44.640;7.494;2022-11-20T14:36:20;12.40;92.30
39957;DHT22;48483;44.640;7.494;2022-11-20T14:38:47;12.40;90.60
39957;DHT22;48483;44.640;7.494;2022-11-20T14:41:17;12.40;91.00
39957;DHT22;48483;44.640;7.494;2022-11-20T14:43:46;12.40;88.10
39957;DHT22;48483;44.640;7.494;2022-11-20T14:46:14;12.40;90.30
39957;DHT22;48483;44.640;7.494;2022-11-20T14:48:44;12.40;91.60
39957;DHT22;48483;44.640;7.494;2022-11-20T14:51:15;12.30;91.30
39957;DHT22;48483;44.640;7.494;2022-11-20T14:53:49;12.30;91.10
39957;DHT22;48483;44.640;7.494;2022-11-20T14:56:21;12.30;90.70
39957;DHT22;48483;44.640;7.494;2022-11-20T14:58:56;12.30;88.80
39957;DHT22;48483;44.640;7.494;2022-11-20T15:01:26;12.20;87.60
39957;DHT22;48483;44.640;7.494;2022-11-20T15:04:00;12.20;89.90
39957;DHT22;48483;44.640;7.494;2022-11-20T15:06:27;12.20;89.90
39957;DHT22;48483;44.640;7.494;2022-11-20T15:08:54;12.10;87.00
39957;DHT22;48483;44.640;7.494;2022-11-20T15:11:27;12.10;85.70
39957;DHT22;48483;44.640;7.494;2022-11-20T15:13:56;12.00;85.90
39957;DHT22;48483;44.640;7.494;2022-11-20T15:16:23;11.90;85.10
39957;DHT22;48483;44.640;7.494;2022-11-20T15:18:51;11.90;86.70
39957;DHT22;48483;44.640;7.494;2022-11-20T15:21:19;11.80;88.60
39957;DHT22;48483;44.640;7.494;2022-11-20T15:23:47;11.60;90.00
39957;DHT22;48483;44.640;7.494;2022-11-20T15:26:23;11.60;90.80
39957;DHT22;48483;44.640;7.494;2022-11-20T15:28:52;11.40;91.80
39957;DHT22;48483;44.640;7.494;2022-11-20T15:31:22;11.40;92.40
39957;DHT22;48483;44.640;7.494;2022-11-20T15:33:49;11.40;93.60
39957;DHT22;48483;44.640;7.494;2022-11-20T15:36:16;11.40;94.20
39957;DHT22;48483;44.640;7.494;2022-11-20T15:38:43;11.30;93.70
39957;DHT22;48483;44.640;7.494;2022-11-20T15:41:09;11.20;93.70
39957;DHT22;48483;44.640;7.494;2022-11-20T15:43:37;11.10;93.30
39957;DHT22;48483;44.640;7.494;2022-11-20T15:46:05;11.00;93.10
39957;DHT22;48483;44.640;7.494;2022-11-20T15:48:38;10.90;94.10
39957;DHT22;48483;44.640;7.494;2022-11-20T15:51:11;10.80;95.00
39957;DHT22;48483;44.640;7.494;2022-11-20T15:53:41;10.80;95.50
39957;DHT22;48483;44.640;7.494;2022-11-20T15:56:11;10.70;96.10
39957;DHT22;48483;44.640;7.494;2022-11-20T15:58:38;10.60;95.40
39957;DHT22;48483;44.640;7.494;2022-11-20T16:01:05;10.50;95.20
39957;DHT22;48483;44.640;7.494;2022-11-20T16:03:32;10.50;95.50
39957;DHT22;48483;44.640;7.494;2022-11-20T16:06:00;10.50;96.00
39957;DHT22;48483;44.640;7.494;2022-11-20T16:08:26;10.40;96.50